Time;durP1;ratioP1;P1;durP2;ratioP2;P2;SDS_P1;SDS_P2;PMS_P1;PMS_P2;Temp;Humidity;BMP_temperature;BMP_pressure;BME280_temperature;BME280_humidity;BME280_pressure;Samples;Min_cycle;Max_cycle;Signal;HPM_P1;HPM_P2
2022/09/26 00:01:41;;;;;;;;;;;;;;;20.53;nan;95077.34;5620140;28;1710;-72
2022/09/26 00:04:25;;;;;;;;;;;;;;;20.54;nan;95068.31;5640957;28;1918;-67
2022/09/26 00:07:13;;;;;;;;;;;;;;;20.50;nan;95094.59;5627313;28;1772;-65
2022/09/26 00:09:56;;;;;;;;;;;;;;;20.47;nan;95078.19;5613096;28;1763;-65
2022/09/26 00:12:39;;;;;;;;;;;;;;;;;;5604161;28;1860;-65
2022/09/26 00:15:22;;;;;;;;;;;;;;;20.44;nan;95095.44;5633081;28;1678;-69
2022/09/26 00:18:06;;;;;;;;;;;;;;;20.45;nan;95081.06;5602675;28;1774;-68
2022/09/26 00:20:49;;;;;;;;;;;;;;;20.46;nan;95087.22;5604561;28;1679;-70
2022/09/26 00:23:32;;;;;;;;;;;;;;;20.45;nan;95085.59;5619060;28;1481;-73
2022/09/26 00:26:16;;;;;;;;;;;;;;;20.47;nan;95083.53;5625605;28;1905;-66
2022/09/26 00:29:03;;;;;;;;;;;;;;;20.48;nan;95079.81;5633362;27;1449;-67
2022/09/26 00:31:46;;;;;;;;;;;;;;;20.47;nan;95072.84;5611387;28;1711;-69
2022/09/26 00:34:30;;;;;;;;;;;;;;;20.45;nan;95085.59;5620200;28;1663;-64
2022/09/26 00:37:13;;;;;;;;;;;;;;;20.43;nan;95082.28;5617831;28;1758;-63
2022/09/26 00:39:56;;;;;;;;;;;;;;;20.41;nan;95069.16;5618541;28;1727;-63
2022/09/26 00:42:38;;;;;;;;;;;;;;;;;;5605925;28;1690;-68
2022/09/26 00:45:21;;;;;;;;;;;;;;;;;;5621009;28;1905;-68
2022/09/26 00:48:05;;;;;;;;;;;;;;;20.44;nan;95062.59;5620841;28;1152;-69
2022/09/26 00:50:49;;;;;;;;;;;;;;;20.42;nan;95054.78;5618452;28;1625;-68
2022/09/26 00:53:32;;;;;;;;;;;;;;;;;;5598232;28;1634;-67
2022/09/26 00:56:17;;;;;;;;;;;;;;;20.45;nan;95064.22;5616928;28;1577;-71
2022/09/26 00:59:03;;;;;;;;;;;;;;;20.49;nan;95054.78;5621394;28;1674;-71
2022/09/26 01:01:46;;;;;;;;;;;;;;;20.51;nan;95068.72;5611347;28;1796;-71
2022/09/26 01:04:30;;;;;;;;;;;;;;;20.53;nan;95061.34;5613921;28;1992;-71
2022/09/26 01:07:18;;;;;;;;;;;;;;;20.54;nan;95057.63;5621666;28;1616;-71
2022/09/26 01:10:02;;;;;;;;;;;;;;;20.54;nan;95057.63;5629472;28;1682;-71
2022/09/26 01:12:45;;;;;;;;;;;;;;;20.54;nan;95052.28;5621024;28;1710;-71
2022/09/26 01:15:28;;;;;;;;;;;;;;;20.56;nan;95055.56;5613542;28;1791;-71
2022/09/26 01:18:11;;;;;;;;;;;;;;;;;;5593429;28;1092;-71
2022/09/26 01:20:59;;;;;;;;;;;;;;;20.52;nan;95055.19;5603111;28;1586;-65
2022/09/26 01:23:51;;;;;;;;;;;;;;;20.49;nan;95044.13;5599964;28;1616;-66
2022/09/26 01:26:45;;;;;;;;;;;;;;;20.45;nan;95038.34;5602323;28;1890;-66
2022/09/26 01:29:42;;;;;;;;;;;;;;;20.45;nan;95048.22;5596541;28;1605;-65
2022/09/26 01:32:48;;;;;;;;;;;;;;;20.45;nan;95037.53;5598804;28;1000;-65
2022/09/26 01:35:52;;;;;;;;;;;;;;;20.43;nan;95040.44;5614631;28;1669;-67
2022/09/26 01:38:41;;;;;;;;;;;;;;;20.44;nan;95046.59;5586218;28;1781;-66
2022/09/26 01:41:31;;;;;;;;;;;;;;;20.44;nan;95041.25;5612999;28;1556;-66
2022/09/26 01:44:22;;;;;;;;;;;;;;;20.44;nan;95041.25;5597336;28;992;-65
2022/09/26 01:47:11;;;;;;;;;;;;;;;20.50;nan;95051.09;5615554;28;1978;-72
2022/09/26 01:49:59;;;;;;;;;;;;;;;20.54;nan;95046.94;5605055;28;1606;-73
2022/09/26 01:52:45;;;;;;;;;;;;;;;20.55;nan;95032.59;5619033;28;1570;-73
2022/09/26 01:55:30;;;;;;;;;;;;;;;20.51;nan;95036.69;5636496;28;1676;-65
2022/09/26 01:58:17;;;;;;;;;;;;;;;20.48;nan;95045.13;5609418;28;1645;-65
2022/09/26 02:01:01;;;;;;;;;;;;;;;20.46;nan;95029.34;5612799;28;1630;-67
2022/09/26 02:03:46;;;;;;;;;;;;;;;20.47;nan;95032.81;5597446;28;1668;-65
2022/09/26 02:06:29;;;;;;;;;;;;;;;;;;5617409;28;1978;-65
2022/09/26 02:09:16;;;;;;;;;;;;;;;20.46;nan;95028.50;5618589;28;1742;-65
2022/09/26 02:12:01;;;;;;;;;;;;;;;20.46;nan;95018.66;5611192;28;1482;-65
2022/09/26 02:14:47;;;;;;;;;;;;;;;20.45;nan;95011.66;5614085;28;1693;-66
2022/09/26 02:17:33;;;;;;;;;;;;;;;20.46;nan;95007.16;5603847;28;1701;-65
2022/09/26 02:20:19;;;;;;;;;;;;;;;20.47;nan;95003.47;5612574;28;1640;-70
2022/09/26 02:23:03;;;;;;;;;;;;;;;20.48;nan;95015.75;5627463;28;1693;-71
2022/09/26 02:25:48;;;;;;;;;;;;;;;20.49;nan;95018.25;5599679;28;1909;-70
2022/09/26 02:28:31;;;;;;;;;;;;;;;20.49;nan;95006.75;5612472;28;1672;-71
2022/09/26 02:31:19;;;;;;;;;;;;;;;20.49;nan;95012.09;5619867;28;1644;-71
2022/09/26 02:34:03;;;;;;;;;;;;;;;20.49;nan;94996.88;5619560;28;1604;-71
2022/09/26 02:36:46;;;;;;;;;;;;;;;20.49;nan;94996.88;5612990;28;1503;-71
2022/09/26 02:39:29;;;;;;;;;;;;;;;20.50;nan;94997.69;5620363;28;1571;-70
2022/09/26 02:42:20;;;;;;;;;;;;;;;20.48;nan;94991.75;5617013;28;1694;-71
2022/09/26 02:45:17;;;;;;;;;;;;;;;20.48;nan;94989.88;5602390;28;1637;-72
2022/09/26 02:48:13;;;;;;;;;;;;;;;20.48;nan;94973.06;5607570;28;1401;-70
2022/09/26 02:51:03;;;;;;;;;;;;;;;20.47;nan;94982.94;5622602;28;1710;-70
2022/09/26 02:53:55;;;;;;;;;;;;;;;20.48;nan;94989.06;5630085;28;1465;-70
2022/09/26 02:56:47;;;;;;;;;;;;;;;20.48;nan;94989.88;5622321;28;1625;-70
2022/09/26 02:59:33;;;;;;;;;;;;;;;20.47;nan;94987.44;5617702;28;1558;-68
2022/09/26 03:02:19;;;;;;;;;;;;;;;20.44;nan;94988.69;5600201;28;1564;-69
2022/09/26 03:05:06;;;;;;;;;;;;;;;19.60;nan;94981.44;5612859;28;1781;-63
2022/09/26 03:07:51;;;;;;;;;;;;;;;18.74;nan;94982.97;5600222;28;1979;-64
2022/09/26 03:10:34;;;;;;;;;;;;;;;18.47;nan;94976.72;5597080;28;1749;-63
2022/09/26 03:13:16;;;;;;;;;;;;;;;;;;5611504;28;1590;-63
2022/09/26 03:16:01;;;;;;;;;;;;;;;18.08;nan;94967.53;5610885;28;1459;-63
2022/09/26 03:18:48;;;;;;;;;;;;;;;18.08;nan;94966.72;5608284;28;1677;-63
2022/09/26 03:21:31;;;;;;;;;;;;;;;18.03;nan;94947.88;5616833;28;1682;-65
2022/09/26 03:24:18;;;;;;;;;;;;;;;17.98;nan;94956.47;5619026;28;1717;-77
2022/09/26 03:27:03;;;;;;;;;;;;;;;17.86;nan;94963.31;5625921;27;1902;-65
2022/09/26 03:29:46;;;;;;;;;;;;;;;17.89;nan;94962.94;5622284;28;1492;-63
2022/09/26 03:32:31;;;;;;;;;;;;;;;17.85;nan;94956.38;5621905;28;999;-63
2022/09/26 03:35:14;;;;;;;;;;;;;;;17.94;nan;94957.84;5597739;28;1633;-64
2022/09/26 03:37:57;;;;;;;;;;;;;;;17.99;nan;94951.97;5598746;28;1159;-63
2022/09/26 03:40:40;;;;;;;;;;;;;;;18.38;nan;94946.00;5612227;28;1858;-64
2022/09/26 03:43:23;;;;;;;;;;;;;;;17.50;nan;94958.16;5605415;28;1728;-63
2022/09/26 03:46:07;;;;;;;;;;;;;;;17.35;nan;94950.28;5612083;28;1902;-62
2022/09/26 03:48:51;;;;;;;;;;;;;;;17.27;nan;94927.38;5620596;28;1433;-65
2022/09/26 03:51:34;;;;;;;;;;;;;;;17.17;nan;94917.06;5620515;28;1747;-64
2022/09/26 03:54:17;;;;;;;;;;;;;;;;;;5622873;28;1581;-64
2022/09/26 03:57:00;;;;;;;;;;;;;;;17.61;nan;94929.22;5614607;28;1760;-63
2022/09/26 03:59:42;;;;;;;;;;;;;;;17.50;nan;94931.59;5631137;28;1602;-75
2022/09/26 04:02:25;;;;;;;;;;;;;;;17.40;nan;94931.94;5624212;27;1763;-62
2022/09/26 04:05:10;;;;;;;;;;;;;;;17.43;nan;94926.22;5621849;28;1694;-64
2022/09/26 04:07:53;;;;;;;;;;;;;;;17.34;nan;94927.41;5616876;28;1901;-65
2022/09/26 04:10:36;;;;;;;;;;;;;;;17.44;nan;94927.88;5614896;28;1748;-64
2022/09/26 04:13:18;;;;;;;;;;;;;;;17.49;nan;94936.09;5620781;28;1014;-64
2022/09/26 04:16:22;;;;;;;;;;;;;;;17.37;nan;94938.47;5605427;28;1904;-64
2022/09/26 04:19:05;;;;;;;;;;;;;;;17.28;nan;94929.00;5592673;28;1099;-64
2022/09/26 04:21:51;;;;;;;;;;;;;;;17.15;nan;94924.38;5593393;28;1009;-65
2022/09/26 04:24:33;;;;;;;;;;;;;;;17.11;nan;94923.16;5598592;28;951;-64
2022/09/26 04:27:17;;;;;;;;;;;;;;;17.21;nan;94933.41;5595760;28;1985;-63
2022/09/26 04:29:59;;;;;;;;;;;;;;;17.29;nan;94940.44;5595830;28;984;-64
2022/09/26 04:32:42;;;;;;;;;;;;;;;17.26;nan;94951.44;5586677;28;1152;-64
2022/09/26 04:35:26;;;;;;;;;;;;;;;17.13;nan;94947.69;5596228;28;1047;-64
2022/09/26 04:38:09;;;;;;;;;;;;;;;;;;5595524;28;820;-64
2022/09/26 04:40:53;;;;;;;;;;;;;;;17.18;nan;94950.56;5595544;28;1028;-65
2022/09/26 04:43:36;;;;;;;;;;;;;;;17.16;nan;94957.09;5588963;28;1384;-63
2022/09/26 04:46:21;;;;;;;;;;;;;;;17.06;nan;94946.78;5597778;28;1979;-63
2022/09/26 04:49:08;;;;;;;;;;;;;;;17.14;nan;94944.00;5597748;28;1068;-63
2022/09/26 04:51:51;;;;;;;;;;;;;;;17.06;nan;94952.09;5597770;28;1231;-66
2022/09/26 04:54:37;;;;;;;;;;;;;;;;;;5589382;28;1136;-63
2022/09/26 04:57:21;;;;;;;;;;;;;;;17.09;nan;94930.47;5598073;28;1259;-63
2022/09/26 05:00:05;;;;;;;;;;;;;;;;;;5597820;28;1065;-63
2022/09/26 05:02:48;;;;;;;;;;;;;;;17.00;nan;94941.44;5597104;28;1275;-65
2022/09/26 05:05:31;;;;;;;;;;;;;;;17.04;nan;94938.19;5588837;28;1356;-64
2022/09/26 05:08:14;;;;;;;;;;;;;;;;;;5598067;28;1913;-64
2022/09/26 05:10:57;;;;;;;;;;;;;;;17.02;nan;94944.72;5596670;28;1188;-64
2022/09/26 05:13:39;;;;;;;;;;;;;;;;;;5598017;28;1090;-66
2022/09/26 05:16:27;;;;;;;;;;;;;;;17.13;nan;94931.75;5589285;28;1430;-67
2022/09/26 05:19:09;;;;;;;;;;;;;;;17.02;nan;94913.69;5597742;28;1107;-64
2022/09/26 05:21:52;;;;;;;;;;;;;;;16.98;nan;94917.72;5597648;28;1021;-64
2022/09/26 05:27:35;;;;;;;;;;;;;;;16.94;nan;94911.16;5593378;28;2003;-65
2022/09/26 05:30:18;;;;;;;;;;;;;;;16.87;nan;94910.25;5594266;28;1148;-65
2022/09/26 05:33:03;;;;;;;;;;;;;;;16.97;nan;94905.47;5597302;28;984;-64
2022/09/26 05:35:49;;;;;;;;;;;;;;;16.98;nan;94913.22;5597861;28;1088;-64
2022/09/26 05:38:32;;;;;;;;;;;;;;;17.04;nan;94895.72;5592767;28;1328;-64
2022/09/26 05:41:14;;;;;;;;;;;;;;;17.17;nan;94906.44;5592685;28;1058;-63
2022/09/26 05:43:57;;;;;;;;;;;;;;;17.22;nan;94903.22;5597345;28;988;-64
2022/09/26 05:46:40;;;;;;;;;;;;;;;17.11;nan;94896.59;5596905;28;1081;-66
2022/09/26 05:49:24;;;;;;;;;;;;;;;17.23;nan;94899.53;5596881;28;1914;-64
2022/09/26 05:52:07;;;;;;;;;;;;;;;17.33;nan;94893.91;5587326;28;1235;-64
2022/09/26 05:54:50;;;;;;;;;;;;;;;17.37;nan;94916.41;5596466;28;1074;-64
2022/09/26 05:57:33;;;;;;;;;;;;;;;17.37;nan;94916.41;5597355;28;1215;-64
2022/09/26 06:00:16;;;;;;;;;;;;;;;17.27;nan;94921.22;5597313;28;1024;-65
2022/09/26 06:03:00;;;;;;;;;;;;;;;17.25;nan;94917.94;5588042;28;1194;-66
2022/09/26 06:05:44;;;;;;;;;;;;;;;17.33;nan;94925.78;5597465;28;1036;-64
2022/09/26 06:08:27;;;;;;;;;;;;;;;17.34;nan;94916.78;5596437;28;1980;-64
2022/09/26 06:11:12;;;;;;;;;;;;;;;17.29;nan;94913.88;5596475;28;964;-64
2022/09/26 06:13:57;;;;;;;;;;;;;;;17.35;nan;94923.72;5587982;28;1517;-65
2022/09/26 06:16:39;;;;;;;;;;;;;;;;;;5601351;28;1160;-64
2022/09/26 06:19:22;;;;;;;;;;;;;;;17.58;nan;94929.59;5601710;28;1121;-64
2022/09/26 06:22:07;;;;;;;;;;;;;;;17.62;nan;94940.69;5601281;28;1001;-65
2022/09/26 06:24:50;;;;;;;;;;;;;;;17.57;nan;94932.47;5588779;28;1185;-65
2022/09/26 06:27:33;;;;;;;;;;;;;;;17.59;nan;94919.81;5598109;28;1898;-64
2022/09/26 06:30:16;;;;;;;;;;;;;;;17.65;nan;94924.34;5592593;28;1023;-66
2022/09/26 06:33:00;;;;;;;;;;;;;;;17.64;nan;94923.53;5589817;28;903;-64
2022/09/26 06:35:43;;;;;;;;;;;;;;;17.62;nan;94935.38;5596131;28;1494;-66
2022/09/26 06:38:27;;;;;;;;;;;;;;;17.62;nan;94936.19;5598600;28;1245;-64
2022/09/26 06:41:14;;;;;;;;;;;;;;;17.61;nan;94933.69;5600794;28;1106;-64
2022/09/26 06:43:57;;;;;;;;;;;;;;;17.66;nan;94910.84;5600909;28;1109;-66
2022/09/26 06:46:40;;;;;;;;;;;;;;;17.74;nan;94922.38;5597499;28;1113;-64
2022/09/26 06:49:23;;;;;;;;;;;;;;;;;;5596183;28;1947;-64
2022/09/26 06:52:06;;;;;;;;;;;;;;;18.13;nan;94905.00;5600194;28;1337;-65
2022/09/26 06:54:50;;;;;;;;;;;;;;;18.25;nan;94908.72;5599697;28;1072;-65
2022/09/26 06:57:36;;;;;;;;;;;;;;;18.33;nan;94912.00;5600975;28;1095;-65
2022/09/26 07:00:19;;;;;;;;;;;;;;;18.37;nan;94923.06;5591159;28;1142;-67
2022/09/26 07:03:02;;;;;;;;;;;;;;;18.43;nan;94932.09;5600935;28;1016;-65
2022/09/26 07:05:45;;;;;;;;;;;;;;;18.50;nan;94922.28;5601569;28;1061;-65
2022/09/26 07:08:29;;;;;;;;;;;;;;;18.53;nan;94933.34;5599713;28;1914;-66
2022/09/26 07:11:31;;;;;;;;;;;;;;;;;;5591882;28;1694;-65
2022/09/26 07:14:33;;;;;;;;;;;;;;;18.64;nan;94928.47;5600646;28;1107;-65
2022/09/26 07:17:16;;;;;;;;;;;;;;;18.67;nan;94923.59;5600930;28;1087;-65
2022/09/26 07:19:59;;;;;;;;;;;;;;;;;;5600491;28;1019;-64
2022/09/26 07:22:43;;;;;;;;;;;;;;;18.78;nan;94919.53;5590438;28;1087;-64
2022/09/26 07:25:25;;;;;;;;;;;;;;;18.82;nan;94931.38;5599856;28;1128;-64
2022/09/26 07:28:08;;;;;;;;;;;;;;;;;;5599135;28;1913;-64
2022/09/26 07:30:55;;;;;;;;;;;;;;;18.89;nan;94926.88;5598955;28;1015;-68
2022/09/26 07:33:39;;;;;;;;;;;;;;;18.91;nan;94929.34;5591129;28;1113;-65
2022/09/26 07:36:21;;;;;;;;;;;;;;;18.89;nan;94926.88;5599935;28;1000;-63
2022/09/26 07:39:04;;;;;;;;;;;;;;;18.91;nan;94914.19;5599617;28;1119;-65
2022/09/26 07:41:47;;;;;;;;;;;;;;;18.83;nan;94910.91;5600085;28;1012;-64
2022/09/26 07:44:30;;;;;;;;;;;;;;;18.77;nan;94907.22;5590986;28;1220;-64
2022/09/26 07:50:36;;;;;;;;;;;;;;;18.91;nan;94919.53;5600138;28;1106;-65
2022/09/26 07:53:19;;;;;;;;;;;;;;;19.00;nan;94922.81;5598629;28;1344;-64
2022/09/26 07:56:10;;;;;;;;;;;;;;;19.03;nan;94916.25;5590518;28;1257;-65
2022/09/26 07:58:54;;;;;;;;;;;;;;;19.04;nan;94907.25;5599224;28;1355;-64
2022/09/26 08:01:37;;;;;;;;;;;;;;;19.04;nan;94912.59;5598842;28;1036;-63
2022/09/26 08:04:20;;;;;;;;;;;;;;;;;;5599269;28;1080;-64
2022/09/26 08:07:04;;;;;;;;;;;;;;;19.12;nan;94888.38;5590181;28;1237;-65
2022/09/26 08:09:47;;;;;;;;;;;;;;;19.16;nan;94894.97;5598599;28;1968;-64
2022/09/26 08:12:34;;;;;;;;;;;;;;;19.16;nan;94895.78;5598666;28;941;-64
2022/09/26 08:15:17;;;;;;;;;;;;;;;19.21;nan;94892.50;5599146;28;1151;-64
2022/09/26 08:17:59;;;;;;;;;;;;;;;;;;5591735;28;1212;-68
2022/09/26 08:20:46;;;;;;;;;;;;;;;19.29;nan;94868.31;5597062;28;1104;-65
2022/09/26 08:23:29;;;;;;;;;;;;;;;;;;5597806;28;1383;-65
2022/09/26 08:26:13;;;;;;;;;;;;;;;19.35;nan;94872.81;5598473;28;1083;-66
2022/09/26 08:28:58;;;;;;;;;;;;;;;19.37;nan;94865.41;5593408;28;1988;-65
2022/09/26 08:31:41;;;;;;;;;;;;;;;19.40;nan;94854.34;5593545;28;1073;-65
2022/09/26 08:34:24;;;;;;;;;;;;;;;19.43;nan;94845.97;5598244;28;1178;-64
2022/09/26 08:37:07;;;;;;;;;;;;;;;19.47;nan;94853.53;5597679;28;1027;-73
2022/09/26 08:39:50;;;;;;;;;;;;;;;;;;5595875;28;999;-69
2022/09/26 08:42:42;;;;;;;;;;;;;;;19.51;nan;94834.25;5591757;28;1120;-64
2022/09/26 08:48:33;;;;;;;;;;;;;;;;;;5598415;28;1961;-64
2022/09/26 08:51:23;;;;;;;;;;;;;;;19.54;nan;94817.84;5594468;28;1317;-68
2022/09/26 08:54:12;;;;;;;;;;;;;;;19.56;nan;94836.31;5592776;28;1341;-65
2022/09/26 08:56:58;;;;;;;;;;;;;;;19.57;nan;94828.09;5598350;28;1079;-66
2022/09/26 08:59:44;;;;;;;;;;;;;;;19.59;nan;94820.72;5597181;28;1332;-66
2022/09/26 09:02:30;;;;;;;;;;;;;;;19.60;nan;94826.88;5597814;28;988;-65
2022/09/26 09:05:12;;;;;;;;;;;;;;;;;;5590236;28;1380;-65
2022/09/26 09:07:56;;;;;;;;;;;;;;;19.64;nan;94812.91;5596579;28;1119;-66
2022/09/26 09:10:44;;;;;;;;;;;;;;;19.65;nan;94814.53;5597490;28;1971;-65
2022/09/26 09:13:34;;;;;;;;;;;;;;;19.66;nan;94816.19;5596827;28;1073;-65
2022/09/26 09:16:24;;;;;;;;;;;;;;;19.69;nan;94830.13;5588341;28;1432;-65
2022/09/26 09:19:14;;;;;;;;;;;;;;;19.71;nan;94828.88;5597351;28;756;-64
2022/09/26 09:22:14;;;;;;;;;;;;;;;19.71;nan;94812.88;5597619;28;1023;-64
2022/09/26 09:24:59;;;;;;;;;;;;;;;19.73;nan;94799.34;5597029;28;1064;-64
2022/09/26 09:27:48;;;;;;;;;;;;;;;19.76;nan;94814.94;5588506;28;1291;-64
2022/09/26 09:30:40;;;;;;;;;;;;;;;19.76;nan;94815.75;5597240;28;1987;-64
2022/09/26 09:33:26;;;;;;;;;;;;;;;19.78;nan;94813.69;5597708;28;1103;-64
2022/09/26 09:36:12;;;;;;;;;;;;;;;19.79;nan;94815.31;5597178;28;996;-64
2022/09/26 09:38:59;;;;;;;;;;;;;;;19.78;nan;94813.69;5588161;28;1361;-64
2022/09/26 09:41:46;;;;;;;;;;;;;;;19.79;nan;94804.66;5597430;28;1064;-64
2022/09/26 09:44:35;;;;;;;;;;;;;;;19.82;nan;94803.41;5596407;28;1160;-64
2022/09/26 09:47:18;;;;;;;;;;;;;;;19.82;nan;94798.91;5596851;28;992;-66
2022/09/26 09:50:12;;;;;;;;;;;;;;;19.83;nan;94799.72;5587295;28;1905;-66
2022/09/26 09:52:59;;;;;;;;;;;;;;;19.84;nan;94786.19;5596532;28;1438;-64
2022/09/26 09:55:47;;;;;;;;;;;;;;;19.85;nan;94787.00;5597176;28;1039;-65
2022/09/26 09:58:41;;;;;;;;;;;;;;;19.85;nan;94787.81;5596385;28;1359;-65
2022/09/26 10:01:27;;;;;;;;;;;;;;;19.86;nan;94789.47;5588198;28;1133;-65
2022/09/26 10:04:09;;;;;;;;;;;;;;;;;;5596166;28;1007;-65
2022/09/26 10:06:53;;;;;;;;;;;;;;;;;;5596250;28;1080;-64
2022/09/26 10:09:39;;;;;;;;;;;;;;;19.84;nan;94759.53;5596299;28;1979;-65
2022/09/26 10:12:27;;;;;;;;;;;;;;;19.84;nan;94743.53;5586608;28;1334;-65
2022/09/26 10:15:18;;;;;;;;;;;;;;;19.85;nan;94755.00;5598262;28;1071;-69
2022/09/26 10:18:02;;;;;;;;;;;;;;;19.86;nan;94757.47;5600210;28;957;-66
2022/09/26 10:21:07;;;;;;;;;;;;;;;19.86;nan;94762.78;5599003;28;1493;-65
2022/09/26 10:23:50;;;;;;;;;;;;;;;19.87;nan;94764.41;5590528;28;1377;-64
2022/09/26 10:26:38;;;;;;;;;;;;;;;19.87;nan;94763.59;5598554;28;1128;-65
2022/09/26 10:29:23;;;;;;;;;;;;;;;19.86;nan;94757.47;5598733;28;1977;-65
2022/09/26 10:32:08;;;;;;;;;;;;;;;19.85;nan;94750.47;5597700;28;1123;-65
2022/09/26 10:35:02;;;;;;;;;;;;;;;19.86;nan;94757.47;5588579;28;1568;-65
2022/09/26 10:37:48;;;;;;;;;;;;;;;19.87;nan;94747.63;5597371;28;791;-65
2022/09/26 10:40:47;;;;;;;;;;;;;;;19.87;nan;94742.28;5597843;28;1050;-65
2022/09/26 10:43:33;;;;;;;;;;;;;;;19.87;nan;94732.44;5598004;28;1068;-65
2022/09/26 10:46:17;;;;;;;;;;;;;;;19.89;nan;94718.91;5589406;28;1471;-64
2022/09/26 10:49:02;;;;;;;;;;;;;;;19.88;nan;94717.25;5598241;28;1106;-64
2022/09/26 10:51:45;;;;;;;;;;;;;;;;;;5598577;28;1914;-65
2022/09/26 10:54:41;;;;;;;;;;;;;;;19.88;nan;94717.25;5597970;28;1359;-65
2022/09/26 10:57:27;;;;;;;;;;;;;;;19.89;nan;94708.22;5589061;28;1455;-65
2022/09/26 11:00:15;;;;;;;;;;;;;;;19.89;nan;94713.56;5598540;28;991;-65
2022/09/26 11:02:59;;;;;;;;;;;;;;;19.88;nan;94695.91;5601432;28;1016;-65
2022/09/26 11:05:58;;;;;;;;;;;;;;;19.89;nan;94692.22;5601542;28;1027;-64
2022/09/26 11:08:41;;;;;;;;;;;;;;;;;;5593542;28;1704;-64
2022/09/26 11:11:26;;;;;;;;;;;;;;;19.89;nan;94687.72;5602282;28;1975;-65
2022/09/26 11:14:09;;;;;;;;;;;;;;;19.89;nan;94674.38;5601206;28;1096;-66
2022/09/26 11:16:54;;;;;;;;;;;;;;;19.92;nan;94685.63;5601999;28;1088;-65
2022/09/26 11:19:41;;;;;;;;;;;;;;;19.90;nan;94677.84;5593294;28;1151;-67
2022/09/26 11:22:24;;;;;;;;;;;;;;;;;;5600974;28;996;-63
2022/09/26 11:25:07;;;;;;;;;;;;;;;;;;5600573;28;1063;-64
2022/09/26 11:27:52;;;;;;;;;;;;;;;19.95;nan;94669.22;5600415;28;1219;-64
2022/09/26 11:30:40;;;;;;;;;;;;;;;19.94;nan;94662.22;5596063;28;1971;-63
2022/09/26 11:33:24;;;;;;;;;;;;;;;19.96;nan;94676.19;5595017;28;1065;-65
2022/09/26 11:36:17;;;;;;;;;;;;;;;19.96;nan;94660.19;5599105;28;1171;-65
2022/09/26 11:39:01;;;;;;;;;;;;;;;;;;5599837;28;811;-64
2022/09/26 11:41:51;;;;;;;;;;;;;;;19.95;nan;94647.88;5595102;28;1142;-66
2022/09/26 11:44:44;;;;;;;;;;;;;;;19.94;nan;94651.56;5594808;28;1092;-65
2022/09/26 11:47:42;;;;;;;;;;;;;;;19.95;nan;94637.22;5600139;28;1103;-65
2022/09/26 11:50:24;;;;;;;;;;;;;;;;;;5565105;28;1989;-65
2022/09/26 11:53:18;;;;;;;;;;;;;;;19.95;nan;94631.91;5594252;28;1199;-65
2022/09/26 11:56:01;;;;;;;;;;;;;;;;;;5593345;28;1209;-65
2022/09/26 11:58:43;;;;;;;;;;;;;;;;;;5598340;28;1307;-64
2022/09/26 12:01:37;;;;;;;;;;;;;;;19.96;nan;94617.50;5598549;28;1183;-63
2022/09/26 12:04:48;;;;;;;;;;;;;;;19.97;nan;94608.47;5594039;28;1572;-67
2022/09/26 12:07:38;;;;;;;;;;;;;;;19.98;nan;94604.78;5594442;28;1199;-67
2022/09/26 12:10:30;;;;;;;;;;;;;;;19.97;nan;94609.28;5598893;28;1905;-64
2022/09/26 12:13:13;;;;;;;;;;;;;;;;;;5597566;28;1119;-63
2022/09/26 12:16:02;;;;;;;;;;;;;;;19.99;nan;94606.41;5593919;28;1175;-64
2022/09/26 12:18:53;;;;;;;;;;;;;;;19.96;nan;94597.00;5593463;28;1072;-65
2022/09/26 12:22:27;;;;;;;;;;;;;;;19.98;nan;94599.47;5598622;28;1119;-63
2022/09/26 12:24:47;;;;;;;;;;;;;;;19.98;nan;94594.94;5597990;28;1151;-63
2022/09/26 12:27:34;;;;;;;;;;;;;;;19.98;nan;94594.13;5593535;28;1157;-63
2022/09/26 12:30:20;;;;;;;;;;;;;;;19.99;nan;94585.06;5595625;28;1981;-64
2022/09/26 12:33:03;;;;;;;;;;;;;;;;;;5597370;28;1001;-70
2022/09/26 12:35:53;;;;;;;;;;;;;;;19.99;nan;94590.41;5597449;28;1148;-65
2022/09/26 12:38:36;;;;;;;;;;;;;;;;;;5594254;28;1120;-65
2022/09/26 12:41:27;;;;;;;;;;;;;;;19.98;nan;94584.25;5593392;28;1095;-64
2022/09/26 12:44:10;;;;;;;;;;;;;;;;;;5598210;28;1119;-63
2022/09/26 12:47:01;;;;;;;;;;;;;;;20.00;nan;94576.03;5598415;28;1337;-63
2022/09/26 12:49:44;;;;;;;;;;;;;;;;;;5594079;28;1482;-66
2022/09/26 12:52:37;;;;;;;;;;;;;;;19.98;nan;94568.28;5592043;28;1977;-64
2022/09/26 12:55:27;;;;;;;;;;;;;;;20.00;nan;94549.38;5597070;28;1063;-62
2022/09/26 12:58:21;;;;;;;;;;;;;;;20.00;nan;94555.50;5596822;28;1148;-63
2022/09/26 13:01:10;;;;;;;;;;;;;;;20.01;nan;94545.69;5594181;28;1313;-64
2022/09/26 13:04:06;;;;;;;;;;;;;;;20.01;nan;94551.03;5591999;28;1224;-63
2022/09/26 13:07:07;;;;;;;;;;;;;;;20.01;nan;94545.69;5596533;28;1011;-63
2022/09/26 13:10:08;;;;;;;;;;;;;;;20.01;nan;94535.00;5590903;28;1155;-63
2022/09/26 13:13:08;;;;;;;;;;;;;;;20.01;nan;94529.69;5591339;28;1909;-66
2022/09/26 13:15:59;;;;;;;;;;;;;;;20.01;nan;94529.69;5596080;28;1168;-66
2022/09/26 13:18:45;;;;;;;;;;;;;;;20.02;nan;94537.44;5595623;28;1103;-64
2022/09/26 13:21:37;;;;;;;;;;;;;;;20.01;nan;94525.16;5596586;28;999;-63
2022/09/26 13:24:22;;;;;;;;;;;;;;;20.01;nan;94524.34;5590796;28;1356;-64
2022/09/26 13:27:11;;;;;;;;;;;;;;;20.02;nan;94525.97;5594002;28;1082;-63
2022/09/26 13:29:53;;;;;;;;;;;;;;;;;;5596544;28;1162;-66
2022/09/26 13:32:42;;;;;;;;;;;;;;;20.02;nan;94521.44;5595073;28;2040;-63
2022/09/26 13:35:26;;;;;;;;;;;;;;;20.02;nan;94520.63;5591807;28;1695;-63
2022/09/26 13:38:13;;;;;;;;;;;;;;;;;;5591576;28;1097;-63
2022/09/26 13:41:00;;;;;;;;;;;;;;;20.04;nan;94523.91;5595585;28;1163;-63
2022/09/26 13:43:52;;;;;;;;;;;;;;;20.05;nan;94525.53;5595921;28;1087;-63
2022/09/26 13:46:40;;;;;;;;;;;;;;;20.03;nan;94517.75;5590891;28;1102;-65
2022/09/26 13:49:23;;;;;;;;;;;;;;;;;;5590492;28;1087;-65
2022/09/26 13:52:12;;;;;;;;;;;;;;;20.02;nan;94516.13;5596316;28;1902;-62
2022/09/26 13:54:57;;;;;;;;;;;;;;;20.04;nan;94513.25;5595483;28;1047;-62
2022/09/26 13:57:48;;;;;;;;;;;;;;;20.03;nan;94523.09;5595737;28;1126;-64
2022/09/26 14:00:39;;;;;;;;;;;;;;;20.04;nan;94514.06;5590334;28;1040;-64
2022/09/26 14:03:46;;;;;;;;;;;;;;;20.04;nan;94519.38;5596001;28;981;-62
2022/09/26 14:06:30;;;;;;;;;;;;;;;20.04;nan;94518.56;5595696;28;1133;-63
2022/09/26 14:09:25;;;;;;;;;;;;;;;;;;5591692;28;1252;-62
2022/09/26 14:12:31;;;;;;;;;;;;;;;20.05;nan;94520.19;5591205;28;1985;-63
2022/09/26 14:15:17;;;;;;;;;;;;;;;20.06;nan;94516.47;5595723;28;1167;-64
2022/09/26 14:18:28;;;;;;;;;;;;;;;20.05;nan;94506.88;5595475;28;1075;-62
2022/09/26 14:21:27;;;;;;;;;;;;;;;20.04;nan;94492.72;5589806;28;1983;-64
2022/09/26 14:24:10;;;;;;;;;;;;;;;;;;5595446;28;1303;-62
2022/09/26 14:26:57;;;;;;;;;;;;;;;20.05;nan;94506.88;5596089;28;1064;-63
2022/09/26 14:29:47;;;;;;;;;;;;;;;20.06;nan;94516.47;5596085;28;1102;-64
2022/09/26 14:32:36;;;;;;;;;;;;;;;20.05;nan;94498.84;5589716;28;1973;-64
2022/09/26 14:35:20;;;;;;;;;;;;;;;20.05;nan;94499.66;5596067;28;1232;-63
2022/09/26 14:38:07;;;;;;;;;;;;;;;20.03;nan;94501.75;5600117;28;987;-63
2022/09/26 14:40:54;;;;;;;;;;;;;;;20.04;nan;94502.56;5599923;28;1139;-63
2022/09/26 14:43:40;;;;;;;;;;;;;;;20.05;nan;94510.34;5595862;28;1120;-64
2022/09/26 14:46:24;;;;;;;;;;;;;;;20.03;nan;94495.59;5595421;28;950;-63
2022/09/26 14:49:19;;;;;;;;;;;;;;;20.04;nan;94497.25;5600389;28;1672;-62
2022/09/26 14:52:02;;;;;;;;;;;;;;;20.08;nan;94498.41;5606860;28;1902;-68
2022/09/26 14:54:50;;;;;;;;;;;;;;;;;;5617409;28;1391;-64
2022/09/26 14:57:34;;;;;;;;;;;;;;;20.09;nan;94489.41;5617207;28;1175;-63
2022/09/26 15:00:39;;;;;;;;;;;;;;;20.09;nan;94494.72;5622069;28;998;-63
2022/09/26 15:03:23;;;;;;;;;;;;;;;20.08;nan;94498.41;5621323;28;948;-63
2022/09/26 15:06:12;;;;;;;;;;;;;;;20.07;nan;94502.13;5611663;28;1414;-64
2022/09/26 15:08:55;;;;;;;;;;;;;;;20.08;nan;94493.09;5593981;28;1279;-63
2022/09/26 15:11:43;;;;;;;;;;;;;;;20.07;nan;94470.94;5599317;28;1902;-64
2022/09/26 15:14:37;;;;;;;;;;;;;;;20.07;nan;94486.94;5599260;28;981;-64
2022/09/26 15:17:23;;;;;;;;;;;;;;;20.07;nan;94476.28;5595973;28;1334;-67
2022/09/26 15:20:08;;;;;;;;;;;;;;;20.08;nan;94487.75;5594616;28;1279;-63
2022/09/26 15:22:56;;;;;;;;;;;;;;;20.09;nan;94494.72;5616946;28;1051;-63
2022/09/26 15:25:38;;;;;;;;;;;;;;;20.10;nan;94501.69;5623796;28;1070;-70
2022/09/26 15:28:23;;;;;;;;;;;;;;;20.09;nan;94500.88;5622331;28;1007;-67
2022/09/26 15:31:20;;;;;;;;;;;;;;;20.09;nan;94494.72;5612879;28;1187;-63
2022/09/26 15:34:03;;;;;;;;;;;;;;;;;;5622450;28;1905;-63
2022/09/26 15:36:47;;;;;;;;;;;;;;;20.10;nan;94491.03;5622966;28;1044;-63
2022/09/26 15:39:37;;;;;;;;;;;;;;;20.09;nan;94495.53;5623553;28;1066;-64
2022/09/26 15:45:28;;;;;;;;;;;;;;;20.25;nan;94482.66;5623674;28;1023;-65